sensor_id;sensor_type;location;lat;lon;timestamp;pressure;altitude;pressure_sealevel;temperature;humidity
51299;BME280;37382;45.192;9.790;2023-08-06T04:05:06;100001.22;;;19.73;100.00
51299;BME280;37382;45.192;9.790;2023-08-06T04:07:33;99990.47;;;19.72;100.00
51299;BME280;37382;45.192;9.790;2023-08-06T04:10:03;100002.88;;;19.69;100.00
51299;BME280;37382;45.192;9.790;2023-08-06T04:12:31;100000.38;;;19.47;100.00
51299;BME280;37382;45.192;9.790;2023-08-06T04:15:03;100003.66;;;19.18;100.00
51299;BME280;37382;45.192;9.790;2023-08-06T04:17:32;100010.22;;;18.97;100.00
51299;BME280;37382;45.192;9.790;2023-08-06T04:20:00;100018.50;;;18.87;100.00
51299;BME280;37382;45.192;9.790;2023-08-06T04:22:29;100022.34;;;18.86;100.00
51299;BME280;37382;45.192;9.790;2023-08-06T04:24:56;100019.28;;;18.82;100.00
51299;BME280;37382;45.192;9.790;2023-08-06T04:27:24;100028.03;;;18.69;100.00
51299;BME280;37382;45.192;9.790;2023-08-06T04:29:52;100037.66;;;18.66;100.00
51299;BME280;37382;45.192;9.790;2023-08-06T04:32:20;100051.75;;;18.75;100.00
51299;BME280;37382;45.192;9.790;2023-08-06T04:34:51;100055.97;;;18.88;100.00
51299;BME280;37382;45.192;9.790;2023-08-06T04:37:19;100049.94;;;19.06;100.00
51299;BME280;37382;45.192;9.790;2023-08-06T04:39:49;100054.09;;;19.04;100.00
51299;BME280;37382;45.192;9.790;2023-08-06T04:42:18;100056.38;;;19.43;100.00
51299;BME280;37382;45.192;9.790;2023-08-06T04:44:47;100062.66;;;19.07;100.00
51299;BME280;37382;45.192;9.790;2023-08-06T04:47:15;100063.81;;;19.32;100.00
51299;BME280;37382;45.192;9.790;2023-08-06T04:49:44;100070.94;;;19.23;100.00
51299;BME280;37382;45.192;9.790;2023-08-06T04:52:12;100073.97;;;19.21;100.00
51299;BME280;37382;45.192;9.790;2023-08-06T04:54:39;100075.72;;;19.63;100.00
51299;BME280;37382;45.192;9.790;2023-08-06T04:57:07;100084.84;;;19.69;100.00
51299;BME280;37382;45.192;9.790;2023-08-06T04:59:35;100101.34;;;19.48;100.00
51299;BME280;37382;45.192;9.790;2023-08-06T05:02:03;100098.03;;;19.41;100.00
51299;BME280;37382;45.192;9.790;2023-08-06T05:04:31;100098.56;;;19.38;100.00
51299;BME280;37382;45.192;9.790;2023-08-06T05:06:58;100096.63;;;19.28;100.00
51299;BME280;37382;45.192;9.790;2023-08-06T05:09:25;100088.16;;;19.71;100.00
51299;BME280;37382;45.192;9.790;2023-08-06T05:11:53;100080.09;;;19.49;100.00
51299;BME280;37382;45.192;9.790;2023-08-06T05:14:21;100076.31;;;19.81;100.00
51299;BME280;37382;45.192;9.790;2023-08-06T05:16:48;100072.41;;;19.61;100.00
51299;BME280;37382;45.192;9.790;2023-08-06T05:19:16;100071.88;;;19.64;100.00
51299;BME280;37382;45.192;9.790;2023-08-06T05:21:44;100074.88;;;19.73;100.00
51299;BME280;37382;45.192;9.790;2023-08-06T05:24:11;100063.31;;;19.55;100.00
51299;BME280;37382;45.192;9.790;2023-08-06T05:26:39;100073.72;;;19.17;100.00
51299;BME280;37382;45.192;9.790;2023-08-06T05:29:06;100072.91;;;19.43;100.00
51299;BME280;37382;45.192;9.790;2023-08-06T05:31:34;100077.38;;;19.74;100.00
51299;BME280;37382;45.192;9.790;2023-08-06T05:34:02;100076.31;;;19.86;100.00
51299;BME280;37382;45.192;9.790;2023-08-06T05:36:30;100087.09;;;19.98;100.00
51299;BME280;37382;45.192;9.790;2023-08-06T05:38:57;100086.25;;;20.07;100.00
51299;BME280;37382;45.192;9.790;2023-08-06T05:41:25;100080.44;;;20.09;100.00
51299;BME280;37382;45.192;9.790;2023-08-06T05:43:53;100083.72;;;20.26;100.00
51299;BME280;37382;45.192;9.790;2023-08-06T05:46:20;100075.16;;;20.38;100.00
51299;BME280;37382;45.192;9.790;2023-08-06T05:48:47;100078.75;;;20.34;100.00
51299;BME280;37382;45.192;9.790;2023-08-06T05:51:15;100076.19;;;20.58;100.00
51299;BME280;37382;45.192;9.790;2023-08-06T05:53:43;100074.00;;;20.55;100.00
51299;BME280;37382;45.192;9.790;2023-08-06T05:56:12;100072.41;;;20.28;100.00
51299;BME280;37382;45.192;9.790;2023-08-06T05:58:40;100074.34;;;20.17;100.00
51299;BME280;37382;45.192;9.790;2023-08-06T06:01:08;100081.50;;;20.39;100.00
51299;BME280;37382;45.192;9.790;2023-08-06T06:03:36;100077.06;;;20.43;100.00
51299;BME280;37382;45.192;9.790;2023-08-06T06:06:03;100086.19;;;20.38;100.00
51299;BME280;37382;45.192;9.790;2023-08-06T06:08:32;100084.56;;;20.06;100.00
51299;BME280;37382;45.192;9.790;2023-08-06T06:10:59;100080.16;;;20.11;100.00
51299;BME280;37382;45.192;9.790;2023-08-06T06:13:26;100084.03;;;20.15;100.00
51299;BME280;37382;45.192;9.790;2023-08-06T06:15:54;100079.88;;;20.02;100.00
51299;BME280;37382;45.192;9.790;2023-08-06T06:18:23;100086.50;;;20.21;100.00
51299;BME280;37382;45.192;9.790;2023-08-06T06:20:51;100086.78;;;20.20;100.00
51299;BME280;37382;45.192;9.790;2023-08-06T06:23:18;100090.66;;;20.03;100.00
51299;BME280;37382;45.192;9.790;2023-08-06T06:25:50;100088.69;;;20.40;100.00
51299;BME280;37382;45.192;9.790;2023-08-06T06:28:20;100088.72;;;20.19;100.00
51299;BME280;37382;45.192;9.790;2023-08-06T06:30:48;100094.22;;;20.35;100.00
51299;BME280;37382;45.192;9.790;2023-08-06T06:33:16;100094.53;;;20.18;100.00
51299;BME280;37382;45.192;9.790;2023-08-06T06:35:43;100094.22;;;20.35;100.00
51299;BME280;37382;45.192;9.790;2023-08-06T06:38:11;100094.75;;;20.47;100.00
51299;BME280;37382;45.192;9.790;2023-08-06T06:40:38;100091.97;;;20.52;100.00
51299;BME280;37382;45.192;9.790;2023-08-06T06:43:06;100100.78;;;20.80;100.00
51299;BME280;37382;45.192;9.790;2023-08-06T06:45:34;100090.72;;;21.05;100.00
51299;BME280;37382;45.192;9.790;2023-08-06T06:48:01;100091.50;;;21.15;100.00
51299;BME280;37382;45.192;9.790;2023-08-06T06:50:29;100097.91;;;21.01;100.00
51299;BME280;37382;45.192;9.790;2023-08-06T06:52:56;100092.63;;;21.09;100.00
51299;BME280;37382;45.192;9.790;2023-08-06T06:55:24;100098.97;;;21.15;100.00
51299;BME280;37382;45.192;9.790;2023-08-06T06:57:51;100087.25;;;21.28;100.00
51299;BME280;37382;45.192;9.790;2023-08-06T07:00:18;100094.44;;;21.29;100.00
51299;BME280;37382;45.192;9.790;2023-08-06T07:02:47;100091.66;;;21.35;100.00
51299;BME280;37382;45.192;9.790;2023-08-06T07:05:14;100094.06;;;21.91;100.00
51299;BME280;37382;45.192;9.790;2023-08-06T07:07:42;100087.44;;;21.87;100.00
51299;BME280;37382;45.192;9.790;2023-08-06T07:10:09;100091.84;;;21.93;100.00
51299;BME280;37382;45.192;9.790;2023-08-06T07:12:38;100079.28;;;21.72;100.00
51299;BME280;37382;45.192;9.790;2023-08-06T07:15:06;100079.66;;;21.94;100.00
51299;BME280;37382;45.192;9.790;2023-08-06T07:17:34;100068.94;;;22.12;100.00
51299;BME280;37382;45.192;9.790;2023-08-06T07:20:02;100059.47;;;22.18;100.00
51299;BME280;37382;45.192;9.790;2023-08-06T07:22:30;100064.38;;;22.26;100.00
51299;BME280;37382;45.192;9.790;2023-08-06T07:24:57;100071.72;;;22.12;100.00
51299;BME280;37382;45.192;9.790;2023-08-06T07:27:25;100076.69;;;22.15;100.00
51299;BME280;37382;45.192;9.790;2023-08-06T07:29:53;100085.88;;;22.39;100.00
51299;BME280;37382;45.192;9.790;2023-08-06T07:32:20;100073.75;;;22.35;100.00
51299;BME280;37382;45.192;9.790;2023-08-06T07:34:48;100069.72;;;22.47;100.00
51299;BME280;37382;45.192;9.790;2023-08-06T07:37:16;100075.69;;;22.59;100.00
51299;BME280;37382;45.192;9.790;2023-08-06T07:39:44;100071.69;;;22.70;100.00
51299;BME280;37382;45.192;9.790;2023-08-06T07:42:12;100079.44;;;22.73;100.00
51299;BME280;37382;45.192;9.790;2023-08-06T07:44:39;100065.28;;;22.94;100.00
51299;BME280;37382;45.192;9.790;2023-08-06T07:47:07;100067.88;;;22.85;100.00
51299;BME280;37382;45.192;9.790;2023-08-06T07:49:34;100069.34;;;23.02;100.00
51299;BME280;37382;45.192;9.790;2023-08-06T07:52:02;100066.16;;;23.14;100.00
51299;BME280;37382;45.192;9.790;2023-08-06T07:54:30;100062.66;;;23.27;100.00
51299;BME280;37382;45.192;9.790;2023-08-06T07:56:59;100071.97;;;23.36;100.00
51299;BME280;37382;45.192;9.790;2023-08-06T07:59:26;100079.06;;;23.23;100.00
51299;BME280;37382;45.192;9.790;2023-08-06T08:01:53;100074.75;;;23.36;100.00
51299;BME280;37382;45.192;9.790;2023-08-06T08:04:22;100076.97;;;23.53;100.00
51299;BME280;37382;45.192;9.790;2023-08-06T08:06:50;100077.28;;;23.52;100.00
51299;BME280;37382;45.192;9.790;2023-08-06T08:09:17;100079.06;;;23.61;100.00
51299;BME280;37382;45.192;9.790;2023-08-06T08:11:45;100076.47;;;23.51;100.00
51299;BME280;37382;45.192;9.790;2023-08-06T08:14:14;100082.81;;;23.90;100.00
51299;BME280;37382;45.192;9.790;2023-08-06T08:16:41;100090.53;;;23.93;100.00
51299;BME280;37382;45.192;9.790;2023-08-06T08:19:09;100088.16;;;23.86;100.00
51299;BME280;37382;45.192;9.790;2023-08-06T08:21:37;100080.78;;;23.95;100.00
51299;BME280;37382;45.192;9.790;2023-08-06T08:24:04;100070.38;;;24.01;100.00
51299;BME280;37382;45.192;9.790;2023-08-06T08:26:32;100072.16;;;23.97;100.00
51299;BME280;37382;45.192;9.790;2023-08-06T08:28:59;100078.13;;;24.04;100.00
51299;BME280;37382;45.192;9.790;2023-08-06T08:31:27;100077.06;;;24.33;100.00
51299;BME280;37382;45.192;9.790;2023-08-06T08:33:55;100065.63;;;24.34;100.00
51299;BME280;37382;45.192;9.790;2023-08-06T08:36:26;100076.09;;;24.24;100.00
51299;BME280;37382;45.192;9.790;2023-08-06T08:38:53;100079.75;;;24.38;100.00
51299;BME280;37382;45.192;9.790;2023-08-06T08:41:21;100087.66;;;24.31;100.00
51299;BME280;37382;45.192;9.790;2023-08-06T08:43:50;100077.28;;;24.50;100.00
51299;BME280;37382;45.192;9.790;2023-08-06T08:46:19;100076.66;;;24.40;100.00
51299;BME280;37382;45.192;9.790;2023-08-06T08:48:49;100087.59;;;24.50;100.00
51299;BME280;37382;45.192;9.790;2023-08-06T08:51:17;100089.69;;;24.58;98.66
51299;BME280;37382;45.192;9.790;2023-08-06T08:53:47;100096.38;;;24.71;100.00
51299;BME280;37382;45.192;9.790;2023-08-06T08:56:17;100098.25;;;24.90;100.00
51299;BME280;37382;45.192;9.790;2023-08-06T08:58:45;100083.31;;;24.72;96.94
51299;BME280;37382;45.192;9.790;2023-08-06T09:01:12;100085.34;;;24.94;96.64
51299;BME280;37382;45.192;9.790;2023-08-06T09:03:40;100095.22;;;25.00;95.45
51299;BME280;37382;45.192;9.790;2023-08-06T09:06:10;100084.31;;;25.17;96.54
51299;BME280;37382;45.192;9.790;2023-08-06T09:08:49;100086.03;;;25.27;96.79
51299;BME280;37382;45.192;9.790;2023-08-06T09:11:18;100084.94;;;25.14;96.01
51299;BME280;37382;45.192;9.790;2023-08-06T09:13:48;100078.53;;;25.00;91.64
51299;BME280;37382;45.192;9.790;2023-08-06T09:16:15;100079.13;;;25.11;88.03
51299;BME280;37382;45.192;9.790;2023-08-06T09:18:43;100080.78;;;25.12;86.38
51299;BME280;37382;45.192;9.790;2023-08-06T09:21:14;100076.31;;;25.52;87.02
51299;BME280;37382;45.192;9.790;2023-08-06T09:23:43;100094.63;;;25.53;87.93
51299;BME280;37382;45.192;9.790;2023-08-06T09:26:12;100078.72;;;25.68;86.46
51299;BME280;37382;45.192;9.790;2023-08-06T09:28:43;100091.53;;;25.55;79.66
51299;BME280;37382;45.192;9.790;2023-08-06T09:31:11;100086.44;;;25.71;79.12
51299;BME280;37382;45.192;9.790;2023-08-06T09:33:38;100092.31;;;25.69;80.10
51299;BME280;37382;45.192;9.790;2023-08-06T09:36:10;100085.81;;;25.74;79.67
51299;BME280;37382;45.192;9.790;2023-08-06T09:38:39;100087.09;;;25.90;79.93
51299;BME280;37382;45.192;9.790;2023-08-06T09:41:09;100089.72;;;25.96;79.00
51299;BME280;37382;45.192;9.790;2023-08-06T09:43:43;100084.63;;;26.12;77.54
51299;BME280;37382;45.192;9.790;2023-08-06T09:46:12;100095.41;;;26.04;76.96
51299;BME280;37382;45.192;9.790;2023-08-06T09:48:45;100097.69;;;26.02;73.55
51299;BME280;37382;45.192;9.790;2023-08-06T09:51:13;100087.09;;;26.44;76.42
51299;BME280;37382;45.192;9.790;2023-08-06T09:53:41;100082.03;;;26.55;75.18
51299;BME280;37382;45.192;9.790;2023-08-06T09:56:10;100102.06;;;26.80;73.16
51299;BME280;37382;45.192;9.790;2023-08-06T09:58:39;100096.91;;;26.73;73.23
51299;BME280;37382;45.192;9.790;2023-08-06T10:01:07;100090.19;;;26.43;72.54
51299;BME280;37382;45.192;9.790;2023-08-06T10:03:36;100086.94;;;26.81;73.18
51299;BME280;37382;45.192;9.790;2023-08-06T10:06:04;100092.00;;;26.39;72.47
51299;BME280;37382;45.192;9.790;2023-08-06T10:08:34;100087.81;;;26.59;70.07
51299;BME280;37382;45.192;9.790;2023-08-06T10:11:03;100097.16;;;26.63;74.96
51299;BME280;37382;45.192;9.790;2023-08-06T10:13:33;100084.78;;;26.78;69.53
51299;BME280;37382;45.192;9.790;2023-08-06T10:16:02;100078.47;;;26.63;67.79
51299;BME280;37382;45.192;9.790;2023-08-06T10:18:36;100092.75;;;26.62;69.91
51299;BME280;37382;45.192;9.790;2023-08-06T10:21:08;100096.25;;;26.68;68.95
51299;BME280;37382;45.192;9.790;2023-08-06T10:23:40;100083.34;;;26.80;65.12
51299;BME280;37382;45.192;9.790;2023-08-06T10:26:08;100090.66;;;26.68;63.08
51299;BME280;37382;45.192;9.790;2023-08-06T10:28:37;100088.75;;;26.77;66.18
51299;BME280;37382;45.192;9.790;2023-08-06T10:31:06;100097.97;;;26.86;67.50
51299;BME280;37382;45.192;9.790;2023-08-06T10:33:44;100107.16;;;26.87;64.87
51299;BME280;37382;45.192;9.790;2023-08-06T10:36:13;100099.53;;;27.19;64.74
51299;BME280;37382;45.192;9.790;2023-08-06T10:38:45;100102.19;;;27.32;64.22
51299;BME280;37382;45.192;9.790;2023-08-06T10:41:29;100100.75;;;27.70;64.56
51299;BME280;37382;45.192;9.790;2023-08-06T10:44:08;100103.19;;;27.80;61.73
51299;BME280;37382;45.192;9.790;2023-08-06T10:46:36;100097.78;;;27.40;61.63
51299;BME280;37382;45.192;9.790;2023-08-06T10:49:04;100098.78;;;27.53;64.89
51299;BME280;37382;45.192;9.790;2023-08-06T10:51:32;100104.50;;;27.83;63.93
51299;BME280;37382;45.192;9.790;2023-08-06T10:53:59;100104.03;;;27.63;61.39
51299;BME280;37382;45.192;9.790;2023-08-06T10:56:27;100099.25;;;27.55;59.03
51299;BME280;37382;45.192;9.790;2023-08-06T10:58:56;100097.28;;;27.73;60.98
51299;BME280;37382;45.192;9.790;2023-08-06T11:01:28;100100.06;;;27.56;61.65
51299;BME280;37382;45.192;9.790;2023-08-06T11:04:02;100087.59;;;27.88;60.20
51299;BME280;37382;45.192;9.790;2023-08-06T11:06:32;100094.16;;;28.10;57.54
51299;BME280;37382;45.192;9.790;2023-08-06T11:09:01;100084.78;;;27.88;57.39
51299;BME280;37382;45.192;9.790;2023-08-06T11:11:29;100096.63;;;27.67;57.03
51299;BME280;37382;45.192;9.790;2023-08-06T11:13:56;100096.81;;;27.97;55.00
51299;BME280;37382;45.192;9.790;2023-08-06T11:16:25;100103.81;;;28.30;54.39
51299;BME280;37382;45.192;9.790;2023-08-06T11:18:52;100089.06;;;28.03;51.58
51299;BME280;37382;45.192;9.790;2023-08-06T11:21:22;100083.09;;;28.31;52.69
51299;BME280;37382;45.192;9.790;2023-08-06T11:23:53;100084.75;;;28.23;54.33
51299;BME280;37382;45.192;9.790;2023-08-06T11:26:21;100086.16;;;28.47;53.17
51299;BME280;37382;45.192;9.790;2023-08-06T11:28:50;100087.84;;;29.07;51.92
51299;BME280;37382;45.192;9.790;2023-08-06T11:31:24;100085.34;;;28.37;49.81
51299;BME280;37382;45.192;9.790;2023-08-06T11:33:52;100082.66;;;28.67;46.29
51299;BME280;37382;45.192;9.790;2023-08-06T11:36:34;100076.75;;;28.60;48.29
51299;BME280;37382;45.192;9.790;2023-08-06T11:39:04;100076.09;;;29.23;50.04
51299;BME280;37382;45.192;9.790;2023-08-06T11:41:33;100078.50;;;28.73;45.36
51299;BME280;37382;45.192;9.790;2023-08-06T11:44:01;100062.66;;;29.07;42.13
51299;BME280;37382;45.192;9.790;2023-08-06T11:46:49;100070.28;;;28.98;40.84
51299;BME280;37382;45.192;9.790;2023-08-06T11:49:17;100064.97;;;28.75;38.85
51299;BME280;37382;45.192;9.790;2023-08-06T11:51:48;100060.19;;;28.76;38.58
51299;BME280;37382;45.192;9.790;2023-08-06T11:54:15;100062.75;;;28.60;41.41
51299;BME280;37382;45.192;9.790;2023-08-06T11:56:46;100065.47;;;28.78;39.30
51299;BME280;37382;45.192;9.790;2023-08-06T11:59:13;100062.81;;;28.81;40.72
51299;BME280;37382;45.192;9.790;2023-08-06T12:01:40;100048.91;;;28.55;39.98
51299;BME280;37382;45.192;9.790;2023-08-06T12:04:08;100057.28;;;28.64;39.92
51299;BME280;37382;45.192;9.790;2023-08-06T12:06:42;100045.38;;;29.05;38.12
51299;BME280;37382;45.192;9.790;2023-08-06T12:09:10;100055.72;;;28.84;36.60
51299;BME280;37382;45.192;9.790;2023-08-06T12:11:38;100057.06;;;28.78;37.16
51299;BME280;37382;45.192;9.790;2023-08-06T12:14:06;100051.50;;;28.99;36.04
51299;BME280;37382;45.192;9.790;2023-08-06T12:16:33;100050.66;;;29.07;36.28
51299;BME280;37382;45.192;9.790;2023-08-06T12:19:03;100056.53;;;28.84;36.57
51299;BME280;37382;45.192;9.790;2023-08-06T12:21:31;100042.25;;;29.07;37.82
51299;BME280;37382;45.192;9.790;2023-08-06T12:23:58;100062.66;;;29.37;36.67
51299;BME280;37382;45.192;9.790;2023-08-06T12:26:26;100040.31;;;28.99;35.71
51299;BME280;37382;45.192;9.790;2023-08-06T12:28:54;100043.97;;;29.62;35.84
51299;BME280;37382;45.192;9.790;2023-08-06T12:31:24;100032.50;;;29.89;35.30
51299;BME280;37382;45.192;9.790;2023-08-06T12:33:52;100041.03;;;29.38;34.52
51299;BME280;37382;45.192;9.790;2023-08-06T12:36:20;100033.56;;;29.84;36.10
51299;BME280;37382;45.192;9.790;2023-08-06T12:38:48;100040.47;;;29.87;35.82
51299;BME280;37382;45.192;9.790;2023-08-06T12:41:16;100031.44;;;29.81;34.76
51299;BME280;37382;45.192;9.790;2023-08-06T12:43:44;100044.13;;;29.45;33.97
51299;BME280;37382;45.192;9.790;2023-08-06T12:46:12;100038.97;;;29.68;34.08
51299;BME280;37382;45.192;9.790;2023-08-06T12:48:40;100048.59;;;29.58;32.83
51299;BME280;37382;45.192;9.790;2023-08-06T12:51:08;100051.69;;;29.66;32.46
51299;BME280;37382;45.192;9.790;2023-08-06T12:53:35;100048.75;;;29.83;33.09
51299;BME280;37382;45.192;9.790;2023-08-06T12:56:03;100039.22;;;30.09;31.79
51299;BME280;37382;45.192;9.790;2023-08-06T12:58:32;100033.66;;;30.21;31.44
51299;BME280;37382;45.192;9.790;2023-08-06T13:00:59;100036.59;;;30.37;32.24
51299;BME280;37382;45.192;9.790;2023-08-06T13:03:27;100039.19;;;30.42;32.30
51299;BME280;37382;45.192;9.790;2023-08-06T13:05:59;100042.78;;;30.30;33.59
51299;BME280;37382;45.192;9.790;2023-08-06T13:08:27;100042.00;;;30.92;33.69
51299;BME280;37382;45.192;9.790;2023-08-06T13:10:54;100035.16;;;31.30;30.92
51299;BME280;37382;45.192;9.790;2023-08-06T13:13:22;100030.44;;;30.56;30.29
51299;BME280;37382;45.192;9.790;2023-08-06T13:15:50;100046.81;;;30.08;31.33
51299;BME280;37382;45.192;9.790;2023-08-06T13:18:18;100033.97;;;30.53;31.98
51299;BME280;37382;45.192;9.790;2023-08-06T13:20:45;100030.78;;;30.79;30.33
51299;BME280;37382;45.192;9.790;2023-08-06T13:23:15;100029.72;;;30.84;29.66
51299;BME280;37382;45.192;9.790;2023-08-06T13:25:43;100042.47;;;30.94;29.69
51299;BME280;37382;45.192;9.790;2023-08-06T13:28:11;100034.84;;;30.32;29.89
51299;BME280;37382;45.192;9.790;2023-08-06T13:30:38;100039.84;;;31.26;30.27
51299;BME280;37382;45.192;9.790;2023-08-06T13:33:09;100034.75;;;30.54;31.18
51299;BME280;37382;45.192;9.790;2023-08-06T13:35:38;100026.00;;;30.55;30.83
51299;BME280;37382;45.192;9.790;2023-08-06T13:38:06;100020.97;;;30.98;29.72
51299;BME280;37382;45.192;9.790;2023-08-06T13:40:34;100027.16;;;30.42;30.07
51299;BME280;37382;45.192;9.790;2023-08-06T13:43:02;100018.69;;;30.29;29.36
51299;BME280;37382;45.192;9.790;2023-08-06T13:45:30;100019.56;;;30.55;30.26
51299;BME280;37382;45.192;9.790;2023-08-06T13:47:58;100022.38;;;30.79;30.83
51299;BME280;37382;45.192;9.790;2023-08-06T13:50:26;100011.97;;;30.55;30.58
51299;BME280;37382;45.192;9.790;2023-08-06T13:52:53;100014.69;;;31.17;30.19
51299;BME280;37382;45.192;9.790;2023-08-06T13:55:22;100009.19;;;31.20;30.80
51299;BME280;37382;45.192;9.790;2023-08-06T13:57:50;100015.72;;;30.59;30.00
51299;BME280;37382;45.192;9.790;2023-08-06T14:00:18;100019.91;;;30.53;28.29
51299;BME280;37382;45.192;9.790;2023-08-06T14:02:45;100013.09;;;30.91;28.86
51299;BME280;37382;45.192;9.790;2023-08-06T14:05:13;100034.66;;;30.75;29.40
51299;BME280;37382;45.192;9.790;2023-08-06T14:07:41;100012.06;;;30.71;28.74
51299;BME280;37382;45.192;9.790;2023-08-06T14:10:08;100033.31;;;30.97;28.81
51299;BME280;37382;45.192;9.790;2023-08-06T14:12:36;100008.03;;;30.97;29.23
51299;BME280;37382;45.192;9.790;2023-08-06T14:15:04;100013.31;;;31.11;28.51
51299;BME280;37382;45.192;9.790;2023-08-06T14:17:32;100009.44;;;31.28;28.28
51299;BME280;37382;45.192;9.790;2023-08-06T14:20:00;100011.91;;;31.45;28.16
51299;BME280;37382;45.192;9.790;2023-08-06T14:22:28;100012.72;;;31.58;30.11
51299;BME280;37382;45.192;9.790;2023-08-06T14:24:58;100013.09;;;31.16;28.90
51299;BME280;37382;45.192;9.790;2023-08-06T14:27:25;100023.25;;;31.20;30.13
51299;BME280;37382;45.192;9.790;2023-08-06T14:29:53;100013.97;;;32.05;28.82
51299;BME280;37382;45.192;9.790;2023-08-06T14:32:20;100013.28;;;31.64;29.68
51299;BME280;37382;45.192;9.790;2023-08-06T14:34:49;100012.84;;;31.49;28.84
51299;BME280;37382;45.192;9.790;2023-08-06T14:37:17;100019.25;;;31.21;27.84
51299;BME280;37382;45.192;9.790;2023-08-06T14:39:44;100020.44;;;31.61;29.07
51299;BME280;37382;45.192;9.790;2023-08-06T14:42:11;100021.44;;;31.40;29.70
51299;BME280;37382;45.192;9.790;2023-08-06T14:44:39;100033.56;;;31.16;29.11
51299;BME280;37382;45.192;9.790;2023-08-06T14:47:06;100022.06;;;32.06;28.72
51299;BME280;37382;45.192;9.790;2023-08-06T14:49:34;100031.09;;;32.76;28.49
51299;BME280;37382;45.192;9.790;2023-08-06T14:52:02;100029.69;;;34.92;25.96
51299;BME280;37382;45.192;9.790;2023-08-06T14:54:30;100019.03;;;36.55;24.40
51299;BME280;37382;45.192;9.790;2023-08-06T14:56:57;100024.19;;;37.82;24.07
51299;BME280;37382;45.192;9.790;2023-08-06T14:59:25;100031.59;;;35.75;23.49
51299;BME280;37382;45.192;9.790;2023-08-06T15:01:53;100027.69;;;37.32;22.62
51299;BME280;37382;45.192;9.790;2023-08-06T15:04:21;100027.97;;;38.44;21.44
51299;BME280;37382;45.192;9.790;2023-08-06T15:06:50;100030.34;;;38.06;21.48
51299;BME280;37382;45.192;9.790;2023-08-06T15:09:18;100035.25;;;38.74;22.46
51299;BME280;37382;45.192;9.790;2023-08-06T15:11:49;100029.75;;;40.26;22.04
51299;BME280;37382;45.192;9.790;2023-08-06T15:14:16;100039.72;;;38.32;21.69
51299;BME280;37382;45.192;9.790;2023-08-06T15:16:46;100034.44;;;38.44;22.14
51299;BME280;37382;45.192;9.790;2023-08-06T15:19:15;100042.59;;;38.64;22.18
51299;BME280;37382;45.192;9.790;2023-08-06T15:21:42;100046.91;;;41.82;19.82
51299;BME280;37382;45.192;9.790;2023-08-06T15:24:10;100056.72;;;37.11;21.98
51299;BME280;37382;45.192;9.790;2023-08-06T15:26:38;100056.31;;;38.12;21.47
51299;BME280;37382;45.192;9.790;2023-08-06T15:29:06;100053.06;;;39.07;21.27
51299;BME280;37382;45.192;9.790;2023-08-06T15:31:38;100052.75;;;40.00;20.17
51299;BME280;37382;45.192;9.790;2023-08-06T15:34:06;100057.03;;;39.45;20.49
51299;BME280;37382;45.192;9.790;2023-08-06T15:36:34;100061.00;;;37.57;21.75
51299;BME280;37382;45.192;9.790;2023-08-06T15:39:03;100065.75;;;38.77;21.39
51299;BME280;37382;45.192;9.790;2023-08-06T15:41:33;100059.22;;;38.22;22.13
51299;BME280;37382;45.192;9.790;2023-08-06T15:44:01;100068.94;;;38.32;22.17
51299;BME280;37382;45.192;9.790;2023-08-06T15:46:29;100059.19;;;39.12;21.88
51299;BME280;37382;45.192;9.790;2023-08-06T15:48:56;100074.63;;;38.39;21.90
51299;BME280;37382;45.192;9.790;2023-08-06T15:51:23;100079.50;;;38.21;22.43
51299;BME280;37382;45.192;9.790;2023-08-06T15:53:51;100066.91;;;38.90;21.58
51299;BME280;37382;45.192;9.790;2023-08-06T15:56:19;100085.22;;;38.71;21.42
51299;BME280;37382;45.192;9.790;2023-08-06T15:58:47;100070.84;;;40.81;20.75
51299;BME280;37382;45.192;9.790;2023-08-06T16:01:14;100074.91;;;39.53;20.76
51299;BME280;37382;45.192;9.790;2023-08-06T16:03:43;100074.22;;;38.37;21.51
51299;BME280;37382;45.192;9.790;2023-08-06T16:06:10;100073.66;;;37.70;21.34
51299;BME280;37382;45.192;9.790;2023-08-06T16:08:38;100075.75;;;37.99;21.71
51299;BME280;37382;45.192;9.790;2023-08-06T16:11:05;100093.88;;;36.50;22.11
51299;BME280;37382;45.192;9.790;2023-08-06T16:13:35;100084.69;;;37.97;21.72
51299;BME280;37382;45.192;9.790;2023-08-06T16:16:02;100082.78;;;38.66;21.47
51299;BME280;37382;45.192;9.790;2023-08-06T16:18:30;100082.06;;;39.90;21.54
51299;BME280;37382;45.192;9.790;2023-08-06T16:20:58;100083.59;;;38.88;20.64
51299;BME280;37382;45.192;9.790;2023-08-06T16:23:26;100082.38;;;38.50;19.61
51299;BME280;37382;45.192;9.790;2023-08-06T16:25:53;100097.53;;;37.69;19.41
51299;BME280;37382;45.192;9.790;2023-08-06T16:28:21;100096.94;;;38.23;18.89
51299;BME280;37382;45.192;9.790;2023-08-06T16:30:49;100085.41;;;37.02;19.18
51299;BME280;37382;45.192;9.790;2023-08-06T16:33:16;100096.22;;;37.45;18.80
51299;BME280;37382;45.192;9.790;2023-08-06T16:35:44;100096.19;;;38.76;18.50
51299;BME280;37382;45.192;9.790;2023-08-06T16:38:12;100094.44;;;38.11;18.75
51299;BME280;37382;45.192;9.790;2023-08-06T16:40:41;100094.88;;;39.31;17.87
51299;BME280;37382;45.192;9.790;2023-08-06T16:43:09;100093.72;;;38.96;17.72
51299;BME280;37382;45.192;9.790;2023-08-06T16:45:37;100090.06;;;38.35;17.23
51299;BME280;37382;45.192;9.790;2023-08-06T16:48:05;100097.84;;;37.46;17.81
51299;BME280;37382;45.192;9.790;2023-08-06T16:50:34;100093.38;;;40.12;16.62
51299;BME280;37382;45.192;9.790;2023-08-06T16:53:01;100091.78;;;41.81;16.21
51299;BME280;37382;45.192;9.790;2023-08-06T16:55:31;100090.72;;;40.95;16.24